Time;durP1;ratioP1;P1;durP2;ratioP2;P2;SDS_P1;SDS_P2;PMS_P1;PMS_P2;Temp;Humidity;BMP_temperature;BMP_pressure;BME280_temperature;BME280_humidity;BME280_pressure;Samples;Min_cycle;Max_cycle;Signal;HPM_P1;HPM_P2
2022/05/16 00:00:26;;;;;;;9.40;5.90;;;;;;;;;;5055048;28;20480;-78
2022/05/16 00:02:56;;;;;;;10.75;6.22;;;;;;;;;;5056802;28;20049;-78
2022/05/16 00:05:24;;;;;;;9.10;6.22;;;;;;;;;;5055720;28;20056;-76
2022/05/16 00:07:53;;;;;;;10.52;5.80;;;;;;;;;;5055697;28;20065;-76
2022/05/16 00:10:21;;;;;;;10.05;5.68;;;;;;;;;;5055516;28;20064;-75
2022/05/16 00:12:50;;;;;;;10.18;5.78;;;;;;;;;;5056077;28;20053;-76
2022/05/16 00:15:21;;;;;;;12.95;6.40;;;;;;;;;;5055226;28;20048;-76
2022/05/16 00:17:49;;;;;;;9.43;5.68;;;;;;;;;;5054130;28;20164;-76
2022/05/16 00:20:18;;;;;;;7.57;6.35;;;;;;;;;;5054213;28;20067;-76
2022/05/16 00:22:47;;;;;;;12.43;6.38;;;;;;;;;;5053796;28;20543;-76
2022/05/16 00:25:16;;;;;;;14.82;7.38;;;;;;;;;;5054403;28;20041;-76
2022/05/16 00:27:45;;;;;;;12.00;5.65;;;;;;;;;;5055309;28;20446;-76
2022/05/16 00:30:15;;;;;;;10.48;6.40;;;;;;;;;;5055674;28;20506;-76
2022/05/16 00:32:44;;;;;;;9.05;5.75;;;;;;;;;;5037068;28;20415;-77
2022/05/16 00:35:15;;;;;;;6.15;4.78;;;;;;;;;;5055451;28;20139;-77
2022/05/16 00:37:43;;;;;;;6.00;5.25;;;;;;;;;;5054912;28;20499;-77
2022/05/16 00:40:11;;;;;;;15.43;6.45;;;;;;;;;;5055744;28;20170;-77
2022/05/16 00:42:41;;;;;;;7.22;5.82;;;;;;;;;;5055669;28;20064;-76
2022/05/16 00:45:14;;;;;;;9.25;6.20;;;;;;;;;;5055233;28;20053;-76
2022/05/16 00:47:43;;;;;;;9.15;5.47;;;;;;;;;;5055469;28;20057;-76
2022/05/16 00:50:12;;;;;;;14.93;6.18;;;;;;;;;;5054664;28;20045;-76
2022/05/16 00:52:45;;;;;;;8.10;5.95;;;;;;;;;;5055301;28;20041;-76
2022/05/16 00:55:19;;;;;;;7.05;4.97;;;;;;;;;;5037389;28;20115;-76
2022/05/16 00:57:52;;;;;;;6.68;5.72;;;;;;;;;;5037456;28;20407;-75
2022/05/16 01:00:28;;;;;;;11.63;6.47;;;;;;;;;;5037264;28;20068;-76
2022/05/16 01:05:45;;;;;;;8.60;6.20;;;;;;;;;;5040077;28;20044;-78
2022/05/16 01:08:18;;;;;;;7.53;5.70;;;;;;;;;;5055459;28;20053;-80
2022/05/16 01:10:47;;;;;;;9.45;5.90;;;;;;;;;;5037834;28;20049;-78
2022/05/16 01:13:17;;;;;;;7.07;5.50;;;;;;;;;;5054984;28;20053;-79
2022/05/16 01:15:50;;;;;;;9.38;5.65;;;;;;;;;;5037453;28;20053;-77
2022/05/16 01:18:23;;;;;;;7.22;5.28;;;;;;;;;;5054863;28;20106;-78
2022/05/16 01:21:26;;;;;;;15.82;6.70;;;;;;;;;;5055482;28;20505;-79
2022/05/16 01:23:58;;;;;;;7.90;6.22;;;;;;;;;;5036731;28;20053;-78
2022/05/16 01:26:27;;;;;;;13.48;7.03;;;;;;;;;;5037470;28;20048;-78
2022/05/16 01:28:56;;;;;;;12.98;9.40;;;;;;;;;;5054215;28;20080;-77
2022/05/16 01:31:25;;;;;;;11.80;9.20;;;;;;;;;;5054523;28;20083;-78
2022/05/16 01:33:55;;;;;;;12.70;9.25;;;;;;;;;;5053367;28;20057;-77
2022/05/16 01:36:22;;;;;;;14.70;10.75;;;;;;;;;;5054061;28;20051;-77
2022/05/16 01:38:52;;;;;;;10.98;9.88;;;;;;;;;;5054796;28;20048;-77
2022/05/16 01:41:24;;;;;;;11.38;9.98;;;;;;;;;;5054179;28;20045;-77
2022/05/16 01:43:55;;;;;;;16.15;10.80;;;;;;;;;;5054577;28;20069;-77
2022/05/16 01:46:31;;;;;;;20.85;10.32;;;;;;;;;;5053633;28;20057;-76
2022/05/16 01:48:59;;;;;;;10.70;9.13;;;;;;;;;;5054215;28;20055;-76
2022/05/16 01:51:27;;;;;;;10.90;9.57;;;;;;;;;;5053873;28;20051;-77
2022/05/16 01:53:56;;;;;;;15.50;10.88;;;;;;;;;;5053690;28;20079;-76
2022/05/16 01:56:24;;;;;;;12.02;9.98;;;;;;;;;;5053645;28;20419;-76
2022/05/16 01:58:52;;;;;;;15.35;11.25;;;;;;;;;;5053775;28;20068;-76
2022/05/16 02:01:21;;;;;;;10.88;9.70;;;;;;;;;;5053791;28;20369;-76
2022/05/16 02:03:49;;;;;;;13.82;9.95;;;;;;;;;;5053487;28;20439;-79
2022/05/16 02:06:17;;;;;;;14.23;9.00;;;;;;;;;;5053999;28;20076;-78
2022/05/16 02:08:48;;;;;;;12.52;9.52;;;;;;;;;;5053189;28;20076;-79
2022/05/16 02:11:16;;;;;;;10.35;8.85;;;;;;;;;;5054302;28;20049;-79
2022/05/16 02:13:46;;;;;;;12.05;8.65;;;;;;;;;;5053353;28;20040;-78
2022/05/16 02:16:15;;;;;;;12.80;9.00;;;;;;;;;;5054016;28;20049;-78
2022/05/16 02:18:44;;;;;;;10.23;7.90;;;;;;;;;;5053689;28;20084;-78
2022/05/16 02:26:48;;;;;;;11.88;7.75;;;;;;;;;;5054045;28;20060;-79
2022/05/16 02:29:18;;;;;;;10.35;8.50;;;;;;;;;;5054327;28;20132;-77
2022/05/16 02:31:46;;;;;;;11.85;9.75;;;;;;;;;;5053619;28;20077;-79
2022/05/16 02:34:15;;;;;;;10.68;8.93;;;;;;;;;;5053632;28;20479;-79
2022/05/16 02:36:45;;;;;;;10.65;8.43;;;;;;;;;;5052800;28;20053;-78
2022/05/16 02:39:14;;;;;;;43.30;12.73;;;;;;;;;;5053930;28;20048;-78
2022/05/16 02:41:42;;;;;;;16.00;10.55;;;;;;;;;;5035776;28;20056;-77
2022/05/16 02:44:12;;;;;;;14.13;9.07;;;;;;;;;;5053924;28;20399;-78
2022/05/16 02:46:41;;;;;;;12.77;9.60;;;;;;;;;;5053436;28;20049;-78
2022/05/16 02:49:09;;;;;;;12.52;9.38;;;;;;;;;;5053397;28;20085;-77
2022/05/16 02:51:38;;;;;;;12.23;10.00;;;;;;;;;;5053475;28;20047;-78
2022/05/16 02:54:06;;;;;;;12.10;10.65;;;;;;;;;;5052918;28;20079;-77
2022/05/16 02:56:36;;;;;;;13.55;11.52;;;;;;;;;;5053233;28;20049;-76
2022/05/16 02:59:03;;;;;;;16.83;11.85;;;;;;;;;;5052477;28;20124;-76
2022/05/16 03:01:34;;;;;;;20.33;13.80;;;;;;;;;;5053428;28;20127;-78
2022/05/16 03:04:02;;;;;;;18.95;11.45;;;;;;;;;;5052625;28;20056;-77
2022/05/16 03:06:30;;;;;;;15.48;12.43;;;;;;;;;;5053413;28;20053;-78
2022/05/16 03:08:58;;;;;;;12.35;10.70;;;;;;;;;;5053158;28;20416;-78
2022/05/16 03:11:27;;;;;;;16.85;10.88;;;;;;;;;;5052745;28;20428;-78
2022/05/16 03:13:56;;;;;;;11.70;10.60;;;;;;;;;;5053244;28;20553;-77
2022/05/16 03:16:25;;;;;;;15.80;10.30;;;;;;;;;;5053338;28;20115;-77
2022/05/16 03:18:54;;;;;;;11.10;9.00;;;;;;;;;;5053024;28;20412;-77
2022/05/16 03:21:22;;;;;;;15.48;9.82;;;;;;;;;;5052370;28;20101;-76
2022/05/16 03:23:50;;;;;;;13.68;8.90;;;;;;;;;;5053493;28;20067;-77
2022/05/16 03:26:22;;;;;;;16.55;8.48;;;;;;;;;;5052883;28;20049;-77
2022/05/16 03:28:51;;;;;;;24.23;9.77;;;;;;;;;;5053330;28;20080;-76
2022/05/16 03:31:20;;;;;;;11.57;8.10;;;;;;;;;;5053241;28;20060;-77
2022/05/16 03:33:49;;;;;;;11.52;8.02;;;;;;;;;;5056443;28;20041;-77
2022/05/16 03:36:23;;;;;;;10.52;7.97;;;;;;;;;;5057118;28;20057;-76
2022/05/16 03:41:39;;;;;;;11.52;8.35;;;;;;;;;;5056811;28;20045;-76
2022/05/16 03:44:07;;;;;;;13.43;8.65;;;;;;;;;;5056343;28;20064;-77
2022/05/16 03:46:37;;;;;;;21.35;8.63;;;;;;;;;;5056675;28;20041;-76
2022/05/16 03:49:06;;;;;;;11.15;8.77;;;;;;;;;;5056125;28;20131;-75
2022/05/16 03:51:34;;;;;;;12.38;10.27;;;;;;;;;;5056465;28;20151;-75
2022/05/16 03:54:03;;;;;;;22.20;10.18;;;;;;;;;;5056163;28;20049;-75
2022/05/16 03:56:30;;;;;;;11.63;10.40;;;;;;;;;;5055935;28;20127;-75
2022/05/16 03:58:59;;;;;;;16.23;10.13;;;;;;;;;;5056475;28;20049;-75
2022/05/16 04:01:28;;;;;;;17.33;10.27;;;;;;;;;;5055663;28;20396;-75
2022/05/16 04:03:56;;;;;;;10.27;8.65;;;;;;;;;;5056132;28;20135;-75
2022/05/16 04:06:24;;;;;;;9.55;8.65;;;;;;;;;;5055261;28;20060;-75
2022/05/16 04:08:54;;;;;;;11.98;9.68;;;;;;;;;;5055618;28;20048;-75
2022/05/16 04:11:23;;;;;;;16.52;10.05;;;;;;;;;;5055961;28;20091;-76
2022/05/16 04:13:51;;;;;;;16.42;10.30;;;;;;;;;;5056042;28;20063;-77
2022/05/16 04:16:19;;;;;;;15.40;9.23;;;;;;;;;;5056570;28;20434;-74
2022/05/16 04:18:49;;;;;;;13.75;9.43;;;;;;;;;;5055127;28;20049;-77
2022/05/16 04:21:17;;;;;;;11.35;10.15;;;;;;;;;;5057281;28;20049;-77
2022/05/16 04:23:45;;;;;;;13.05;7.93;;;;;;;;;;5041182;28;20404;-78
2022/05/16 04:26:15;;;;;;;11.73;7.95;;;;;;;;;;5058661;28;20412;-77
2022/05/16 04:28:43;;;;;;;9.80;7.93;;;;;;;;;;5055035;28;20446;-77
2022/05/16 04:31:11;;;;;;;12.52;7.15;;;;;;;;;;5055067;28;20052;-77
2022/05/16 04:33:40;;;;;;;19.10;7.85;;;;;;;;;;5053152;28;20443;-77
2022/05/16 04:36:08;;;;;;;8.32;6.93;;;;;;;;;;5053520;28;20136;-78
2022/05/16 04:38:37;;;;;;;11.63;7.70;;;;;;;;;;5054884;28;20049;-80
2022/05/16 04:43:54;;;;;;;9.25;6.97;;;;;;;;;;5054252;28;20045;-77
2022/05/16 04:46:23;;;;;;;11.52;6.72;;;;;;;;;;5054071;28;20481;-77
2022/05/16 04:48:52;;;;;;;11.75;7.20;;;;;;;;;;5053879;28;20077;-77
2022/05/16 04:51:21;;;;;;;9.52;6.35;;;;;;;;;;5053338;28;20044;-76
2022/05/16 04:53:52;;;;;;;12.80;7.22;;;;;;;;;;5054362;28;20045;-76
2022/05/16 04:56:20;;;;;;;10.73;7.28;;;;;;;;;;5053675;28;20049;-77
2022/05/16 04:58:49;;;;;;;12.63;8.13;;;;;;;;;;5054227;28;20045;-83
2022/05/16 05:01:17;;;;;;;9.95;7.03;;;;;;;;;;5054347;28;20166;-84
2022/05/16 05:03:45;;;;;;;10.65;8.18;;;;;;;;;;5054224;28;20041;-85
2022/05/16 05:06:14;;;;;;;8.38;7.15;;;;;;;;;;5054399;28;20049;-82
2022/05/16 05:08:41;;;;;;;10.88;6.75;;;;;;;;;;5053229;28;20064;-80
2022/05/16 05:16:44;;;;;;;9.60;7.07;;;;;;;;;;5054441;28;20392;-82
2022/05/16 05:19:12;;;;;;;10.18;7.43;;;;;;;;;;5054329;28;20053;-75
2022/05/16 05:21:41;;;;;;;9.52;6.85;;;;;;;;;;5054807;28;20068;-76
2022/05/16 05:24:09;;;;;;;9.23;6.43;;;;;;;;;;5048631;28;20400;-74
2022/05/16 05:26:39;;;;;;;18.25;7.35;;;;;;;;;;5048319;28;20606;-76
2022/05/16 05:29:07;;;;;;;12.55;7.22;;;;;;;;;;5049246;28;20070;-78
2022/05/16 05:31:37;;;;;;;12.05;7.38;;;;;;;;;;4990917;28;20467;-78
2022/05/16 05:34:06;;;;;;;13.65;7.93;;;;;;;;;;5052292;28;20508;-78
2022/05/16 05:36:39;;;;;;;9.80;6.75;;;;;;;;;;5051987;28;20056;-76
2022/05/16 05:39:08;;;;;;;10.27;5.97;;;;;;;;;;5052012;28;20544;-80
2022/05/16 05:41:37;;;;;;;9.15;6.15;;;;;;;;;;5052603;28;20068;-77
2022/05/16 05:44:04;;;;;;;11.88;7.03;;;;;;;;;;5053323;28;20060;-78
2022/05/16 05:46:39;;;;;;;6.75;6.05;;;;;;;;;;5053168;28;20041;-77
2022/05/16 05:49:09;;;;;;;12.45;7.18;;;;;;;;;;5051834;28;20053;-78
2022/05/16 05:51:37;;;;;;;9.07;6.13;;;;;;;;;;5054022;28;20388;-78
2022/05/16 05:54:06;;;;;;;6.70;6.10;;;;;;;;;;5035692;28;20057;-79
2022/05/16 05:56:34;;;;;;;15.45;6.68;;;;;;;;;;5054311;28;20037;-81
2022/05/16 05:59:04;;;;;;;19.70;7.25;;;;;;;;;;5053967;28;20385;-82
2022/05/16 06:01:33;;;;;;;17.80;6.35;;;;;;;;;;5054662;28;20045;-82
2022/05/16 06:04:04;;;;;;;19.17;6.57;;;;;;;;;;5053663;28;20068;-83
2022/05/16 06:06:34;;;;;;;13.95;7.47;;;;;;;;;;5054808;28;20373;-81
2022/05/16 06:09:03;;;;;;;14.43;7.95;;;;;;;;;;5054160;28;20057;-84
2022/05/16 06:11:30;;;;;;;10.98;6.00;;;;;;;;;;5054176;28;20055;-80
2022/05/16 06:13:58;;;;;;;15.20;6.38;;;;;;;;;;5053032;28;20049;-76
2022/05/16 06:16:26;;;;;;;14.10;6.53;;;;;;;;;;5053372;28;20068;-74
2022/05/16 06:18:54;;;;;;;15.52;7.40;;;;;;;;;;5035634;28;20037;-75
2022/05/16 06:21:23;;;;;;;8.70;6.38;;;;;;;;;;5050944;28;20053;-75
2022/05/16 06:23:51;;;;;;;8.00;5.55;;;;;;;;;;5051126;28;20057;-75
2022/05/16 06:26:21;;;;;;;8.40;4.95;;;;;;;;;;5051290;28;20048;-75
2022/05/16 06:28:53;;;;;;;12.27;6.68;;;;;;;;;;5051528;28;20504;-74
2022/05/16 06:31:22;;;;;;;7.72;6.15;;;;;;;;;;5051839;28;20091;-74
2022/05/16 06:33:52;;;;;;;8.27;5.22;;;;;;;;;;5051997;28;20048;-74
2022/05/16 06:36:20;;;;;;;8.50;4.90;;;;;;;;;;5052557;28;20045;-74
2022/05/16 06:38:50;;;;;;;11.98;5.53;;;;;;;;;;5051361;28;20047;-75
2022/05/16 06:41:19;;;;;;;9.48;6.28;;;;;;;;;;5052114;28;20072;-77
2022/05/16 06:43:47;;;;;;;7.80;5.40;;;;;;;;;;5050776;28;20049;-77
2022/05/16 06:46:16;;;;;;;9.05;4.63;;;;;;;;;;5052421;28;20132;-75
2022/05/16 06:48:45;;;;;;;11.95;4.63;;;;;;;;;;5052375;28;20049;-75
2022/05/16 06:51:13;;;;;;;8.27;5.13;;;;;;;;;;5053426;28;20494;-75
2022/05/16 06:53:42;;;;;;;7.70;5.05;;;;;;;;;;5053076;28;20496;-75
2022/05/16 06:56:10;;;;;;;19.55;7.53;;;;;;;;;;5052693;28;20076;-75
2022/05/16 06:58:39;;;;;;;10.23;6.25;;;;;;;;;;5052905;28;20063;-75
2022/05/16 07:01:07;;;;;;;8.93;4.97;;;;;;;;;;5053113;28;20071;-74
2022/05/16 07:03:38;;;;;;;8.80;4.55;;;;;;;;;;5053148;28;20496;-74
2022/05/16 07:06:06;;;;;;;10.38;4.95;;;;;;;;;;5053849;28;20136;-75
2022/05/16 07:08:34;;;;;;;12.60;5.75;;;;;;;;;;5057153;28;20052;-75
2022/05/16 07:11:02;;;;;;;7.47;6.22;;;;;;;;;;5056878;28;20049;-75
2022/05/16 07:13:29;;;;;;;10.73;5.10;;;;;;;;;;5056948;28;20072;-74
2022/05/16 07:15:58;;;;;;;10.50;4.95;;;;;;;;;;5057107;28;20131;-74
2022/05/16 07:18:27;;;;;;;13.18;6.35;;;;;;;;;;5056939;28;20055;-75
2022/05/16 07:20:57;;;;;;;13.80;4.80;;;;;;;;;;5057051;28;20132;-74
2022/05/16 07:23:28;;;;;;;8.10;5.40;;;;;;;;;;5056890;28;20091;-74
2022/05/16 07:28:42;;;;;;;12.48;5.32;;;;;;;;;;5056663;28;20052;-75
2022/05/16 07:31:11;;;;;;;9.30;4.85;;;;;;;;;;5056970;28;20519;-74
2022/05/16 07:33:41;;;;;;;12.63;5.63;;;;;;;;;;5056599;28;20045;-77
2022/05/16 07:36:09;;;;;;;9.32;4.45;;;;;;;;;;5056467;28;20064;-76
2022/05/16 07:38:39;;;;;;;6.80;4.70;;;;;;;;;;5056652;28;20041;-74
2022/05/16 07:41:08;;;;;;;10.02;5.32;;;;;;;;;;5056638;28;20049;-74
2022/05/16 07:43:37;;;;;;;10.00;5.47;;;;;;;;;;5057011;28;20061;-75
2022/05/16 07:46:05;;;;;;;9.38;6.00;;;;;;;;;;5056964;28;20106;-75
2022/05/16 07:48:34;;;;;;;13.40;5.22;;;;;;;;;;5056136;28;20106;-75
2022/05/16 07:51:03;;;;;;;5.97;4.88;;;;;;;;;;5056131;28;20049;-75
2022/05/16 07:53:31;;;;;;;10.30;5.65;;;;;;;;;;5056610;28;20049;-75
2022/05/16 07:55:59;;;;;;;11.65;5.40;;;;;;;;;;5055797;28;20083;-75
2022/05/16 07:59:00;;;;;;;11.88;5.20;;;;;;;;;;5056166;28;20525;-74
2022/05/16 08:01:28;;;;;;;7.47;4.95;;;;;;;;;;5055975;28;20049;-74
2022/05/16 08:03:58;;;;;;;14.63;5.78;;;;;;;;;;5056292;28;20132;-75
2022/05/16 08:06:27;;;;;;;6.60;4.10;;;;;;;;;;5055822;28;20643;-74
2022/05/16 08:11:43;;;;;;;8.93;4.10;;;;;;;;;;5055920;28;20059;-74
2022/05/16 08:14:12;;;;;;;7.18;4.68;;;;;;;;;;5055674;28;20045;-76
2022/05/16 08:16:40;;;;;;;14.13;5.05;;;;;;;;;;5056429;28;20373;-74
2022/05/16 08:19:09;;;;;;;10.90;5.35;;;;;;;;;;5054504;28;20128;-75
2022/05/16 08:21:41;;;;;;;7.97;3.88;;;;;;;;;;5056206;28;20037;-76
2022/05/16 08:24:11;;;;;;;10.20;4.32;;;;;;;;;;5055572;28;20500;-76
2022/05/16 08:26:44;;;;;;;;;;;;;;;;;;5056250;28;20076;-75
2022/05/16 08:29:12;;;;;;;7.68;4.72;;;;;;;;;;5055481;28;19920;-75
2022/05/16 08:31:41;;;;;;;13.88;4.95;;;;;;;;;;5056088;28;20045;-75
2022/05/16 08:34:09;;;;;;;9.82;4.45;;;;;;;;;;5055356;28;20063;-75
2022/05/16 08:42:14;;;;;;;6.28;4.97;;;;;;;;;;5055720;28;20163;-75
2022/05/16 08:44:50;;;;;;;6.53;4.75;;;;;;;;;;5055385;28;20132;-78
2022/05/16 08:47:31;;;;;;;10.57;5.22;;;;;;;;;;5037798;28;20131;-78
2022/05/16 08:50:05;;;;;;;12.43;4.38;;;;;;;;;;5055715;28;20071;-75
2022/05/16 08:52:37;;;;;;;8.38;4.40;;;;;;;;;;5021140;28;20440;-76
2022/05/16 08:55:39;;;;;;;10.65;4.47;;;;;;;;;;5021578;28;20463;-76
2022/05/16 08:58:20;;;;;;;9.98;5.13;;;;;;;;;;5037897;28;20055;-76
2022/05/16 09:00:54;;;;;;;11.70;4.55;;;;;;;;;;5055409;28;20057;-75
2022/05/16 09:03:26;;;;;;;10.80;4.55;;;;;;;;;;5037741;28;20076;-75
2022/05/16 09:06:01;;;;;;;10.05;4.10;;;;;;;;;;5054902;28;20057;-75
2022/05/16 09:08:29;;;;;;;;;;;;;;;;;;5055355;28;20056;-75
2022/05/16 09:11:15;;;;;;;8.80;4.43;;;;;;;;;;5055004;28;19920;-76
2022/05/16 09:14:03;;;;;;;12.50;3.85;;;;;;;;;;5036286;28;20041;-75
2022/05/16 09:16:48;;;;;;;7.45;5.00;;;;;;;;;;5036869;28;20045;-75
2022/05/16 09:19:44;;;;;;;10.40;4.60;;;;;;;;;;5054275;28;20213;-75
2022/05/16 09:22:40;;;;;;;8.23;4.57;;;;;;;;;;5053649;28;20063;-75
2022/05/16 09:25:09;;;;;;;5.85;4.05;;;;;;;;;;5036912;28;20048;-76
2022/05/16 09:30:28;;;;;;;18.88;4.07;;;;;;;;;;5039337;28;20587;-75
2022/05/16 09:33:11;;;;;;;12.27;4.40;;;;;;;;;;5054709;28;20431;-75
2022/05/16 09:36:02;;;;;;;9.63;4.07;;;;;;;;;;5054426;28;20049;-76
2022/05/16 09:38:32;;;;;;;11.13;4.53;;;;;;;;;;5054406;28;20041;-75
2022/05/16 09:41:01;;;;;;;9.15;4.22;;;;;;;;;;5052832;28;20139;-76
2022/05/16 09:43:35;;;;;;;9.35;4.00;;;;;;;;;;5053904;28;20037;-76
2022/05/16 09:46:20;;;;;;;7.72;3.97;;;;;;;;;;5054199;28;20551;-76
2022/05/16 09:49:05;;;;;;;5.22;3.80;;;;;;;;;;5054224;28;20045;-76
2022/05/16 09:51:59;;;;;;;10.73;4.15;;;;;;;;;;5054381;28;20049;-76
2022/05/16 09:54:37;;;;;;;7.07;4.00;;;;;;;;;;5034931;28;20075;-76
2022/05/16 09:57:06;;;;;;;9.20;3.72;;;;;;;;;;5054085;28;20475;-76
2022/05/16 09:59:37;;;;;;;9.45;3.53;;;;;;;;;;5053872;28;20076;-76
2022/05/16 10:02:19;;;;;;;8.50;3.08;;;;;;;;;;5054583;28;20045;-76
2022/05/16 10:04:57;;;;;;;7.55;4.20;;;;;;;;;;5036537;28;20124;-76
2022/05/16 10:07:45;;;;;;;16.25;4.55;;;;;;;;;;5036366;28;20458;-76
2022/05/16 10:10:22;;;;;;;13.77;5.03;;;;;;;;;;5053426;28;20059;-75
2022/05/16 10:12:53;;;;;;;8.95;3.53;;;;;;;;;;5036652;28;20060;-76
2022/05/16 10:15:21;;;;;;;7.88;3.30;;;;;;;;;;5053027;28;20076;-75
2022/05/16 10:17:54;;;;;;;8.55;3.30;;;;;;;;;;5054620;28;20087;-76
2022/05/16 10:20:25;;;;;;;5.15;3.35;;;;;;;;;;5036187;28;20040;-76
2022/05/16 10:22:57;;;;;;;8.15;3.63;;;;;;;;;;5035709;28;20053;-76
2022/05/16 10:25:43;;;;;;;12.65;3.30;;;;;;;;;;5037604;28;20055;-76
2022/05/16 10:28:16;;;;;;;9.70;4.28;;;;;;;;;;5036022;28;20041;-76
2022/05/16 10:33:35;;;;;;;7.68;3.97;;;;;;;;;;5053740;28;20053;-76
2022/05/16 10:36:07;;;;;;;5.50;2.72;;;;;;;;;;5036262;28;20120;-76
2022/05/16 10:39:06;;;;;;;9.52;2.72;;;;;;;;;;5035867;28;20060;-76
2022/05/16 10:41:43;;;;;;;6.22;3.38;;;;;;;;;;5053490;28;20056;-76
2022/05/16 10:44:13;;;;;;;8.68;3.38;;;;;;;;;;5052932;28;20049;-76
2022/05/16 10:47:03;;;;;;;8.67;3.87;;;;;;;;;;5053616;28;20568;-77
2022/05/16 10:49:37;;;;;;;11.93;4.13;;;;;;;;;;5053673;28;20135;-76
2022/05/16 10:52:30;;;;;;;10.25;3.45;;;;;;;;;;5036703;28;20049;-76
2022/05/16 10:54:59;;;;;;;;;;;;;;;;;;5053206;28;20511;-76
2022/05/16 10:57:51;;;;;;;7.20;4.00;;;;;;;;;;5052950;28;19951;-76
2022/05/16 11:00:23;;;;;;;11.55;5.30;;;;;;;;;;5053198;28;20079;-76
2022/05/16 11:03:11;;;;;;;7.85;3.40;;;;;;;;;;5035998;28;20069;-76
2022/05/16 11:05:57;;;;;;;7.15;3.95;;;;;;;;;;5053378;28;20486;-76
2022/05/16 11:08:52;;;;;;;9.93;4.03;;;;;;;;;;5053652;28;20526;-76
2022/05/16 11:11:25;;;;;;;8.32;3.83;;;;;;;;;;5053476;28;20065;-76
2022/05/16 11:14:14;;;;;;;12.55;3.67;;;;;;;;;;5036140;28;20073;-76
2022/05/16 11:16:44;;;;;;;6.78;3.88;;;;;;;;;;5052453;28;20045;-75
2022/05/16 11:19:22;;;;;;;6.03;4.00;;;;;;;;;;5052688;28;20141;-76
2022/05/16 11:22:02;;;;;;;9.25;3.63;;;;;;;;;;5035095;28;20488;-77
2022/05/16 11:24:42;;;;;;;10.55;4.05;;;;;;;;;;5052327;28;20064;-77
2022/05/16 11:27:34;;;;;;;7.40;3.63;;;;;;;;;;5035804;28;20057;-76
2022/05/16 11:30:26;;;;;;;12.98;4.03;;;;;;;;;;5052733;28;20052;-76
2022/05/16 11:33:23;;;;;;;5.68;3.65;;;;;;;;;;5049477;28;20128;-76
2022/05/16 11:35:55;;;;;;;8.38;3.67;;;;;;;;;;5053056;28;20111;-78
2022/05/16 11:38:37;;;;;;;7.47;3.80;;;;;;;;;;5034384;28;20045;-71
2022/05/16 11:41:20;;;;;;;5.70;3.88;;;;;;;;;;5052243;28;20499;-78
2022/05/16 11:43:54;;;;;;;7.72;4.55;;;;;;;;;;5052909;28;20041;-78
2022/05/16 11:46:42;;;;;;;14.90;4.95;;;;;;;;;;5052683;28;20132;-76
2022/05/16 11:49:43;;;;;;;14.65;4.10;;;;;;;;;;5036178;28;20049;-76
2022/05/16 11:52:49;;;;;;;14.57;3.85;;;;;;;;;;5052238;28;20045;-76
2022/05/16 12:01:39;;;;;;;8.48;3.67;;;;;;;;;;5055496;28;20040;-76
2022/05/16 12:04:11;;;;;;;10.50;4.60;;;;;;;;;;5055640;28;20044;-76
2022/05/16 12:06:41;;;;;;;8.15;4.00;;;;;;;;;;5055618;28;20071;-75
2022/05/16 12:09:18;;;;;;;11.40;4.28;;;;;;;;;;5034750;28;20522;-76
2022/05/16 12:12:10;;;;;;;5.63;3.38;;;;;;;;;;5035477;28;20073;-76
2022/05/16 12:14:41;;;;;;;7.50;4.53;;;;;;;;;;5035563;28;20104;-78
2022/05/16 12:17:16;;;;;;;12.93;3.80;;;;;;;;;;5033100;28;20057;-76
2022/05/16 12:19:46;;;;;;;14.80;4.13;;;;;;;;;;5033757;28;20412;-77
2022/05/16 12:22:43;;;;;;;9.02;4.53;;;;;;;;;;5034637;28;20050;-76
2022/05/16 12:25:26;;;;;;;9.50;4.18;;;;;;;;;;5035237;28;20100;-77
2022/05/16 12:28:13;;;;;;;12.95;4.32;;;;;;;;;;5035440;28;20038;-77
2022/05/16 12:30:42;;;;;;;10.25;3.95;;;;;;;;;;5033501;28;20061;-75
2022/05/16 12:33:40;;;;;;;8.40;4.25;;;;;;;;;;5034233;28;20038;-76
2022/05/16 12:36:42;;;;;;;15.38;4.10;;;;;;;;;;5033751;28;20124;-76
2022/05/16 12:39:23;;;;;;;6.75;3.30;;;;;;;;;;5035113;28;20096;-76
2022/05/16 12:42:19;;;;;;;9.93;4.28;;;;;;;;;;5032488;28;20041;-76
2022/05/16 12:45:05;;;;;;;8.45;4.38;;;;;;;;;;5034375;28;20048;-74
2022/05/16 12:47:58;;;;;;;13.80;4.13;;;;;;;;;;5035360;28;20053;-74
2022/05/16 12:50:55;;;;;;;11.68;4.90;;;;;;;;;;5033809;28;20043;-75
2022/05/16 12:53:38;;;;;;;10.20;3.70;;;;;;;;;;5034432;28;20056;-75
2022/05/16 12:56:27;;;;;;;6.93;3.95;;;;;;;;;;5033878;28;20048;-75
2022/05/16 12:59:11;;;;;;;14.18;4.20;;;;;;;;;;5034557;28;20069;-75
2022/05/16 13:01:57;;;;;;;12.25;4.45;;;;;;;;;;5033703;28;20053;-75
2022/05/16 13:04:28;;;;;;;17.67;3.97;;;;;;;;;;5033832;28;20484;-74
2022/05/16 13:07:37;;;;;;;6.28;3.45;;;;;;;;;;5035073;28;20068;-75
2022/05/16 13:10:04;;;;;;;10.68;3.90;;;;;;;;;;5054095;28;20472;-75
2022/05/16 13:12:39;;;;;;;16.10;4.47;;;;;;;;;;5054509;28;20056;-74
2022/05/16 13:15:24;;;;;;;11.75;4.25;;;;;;;;;;5051967;28;20385;-74
2022/05/16 13:17:58;;;;;;;11.70;4.20;;;;;;;;;;5038351;28;20041;-75
2022/05/16 13:20:33;;;;;;;13.55;6.00;;;;;;;;;;5054136;28;20446;-76
2022/05/16 13:23:03;;;;;;;10.43;4.35;;;;;;;;;;5037572;28;20084;-75
2022/05/16 13:29:21;;;;;;;5.72;3.42;;;;;;;;;;5054003;28;20059;-75
2022/05/16 13:31:10;;;;;;;9.00;4.00;;;;;;;;;;5053063;28;20140;-67
2022/05/16 13:33:41;;;;;;;8.90;4.35;;;;;;;;;;5052259;28;20063;-66
2022/05/16 13:36:20;;;;;;;9.15;4.43;;;;;;;;;;5053046;28;20135;-66
2022/05/16 13:39:01;;;;;;;9.32;4.18;;;;;;;;;;5053582;28;20072;-68
2022/05/16 13:41:32;;;;;;;8.23;3.90;;;;;;;;;;5051867;28;20049;-67
2022/05/16 13:44:00;;;;;;;10.70;4.57;;;;;;;;;;5053015;28;20079;-68
2022/05/16 13:46:29;;;;;;;17.00;4.95;;;;;;;;;;5053570;28;20040;-68
2022/05/16 13:49:06;;;;;;;9.23;4.50;;;;;;;;;;5053373;28;20072;-68
2022/05/16 13:51:35;;;;;;;8.52;3.90;;;;;;;;;;5051930;28;20422;-66
2022/05/16 13:54:06;;;;;;;10.10;3.83;;;;;;;;;;5053253;28;20547;-68
2022/05/16 13:56:39;;;;;;;9.95;4.50;;;;;;;;;;5053509;28;20045;-68
2022/05/16 13:59:07;;;;;;;5.13;4.53;;;;;;;;;;5052742;28;20045;-68
2022/05/16 14:01:36;;;;;;;11.15;3.83;;;;;;;;;;5052823;28;20092;-67
2022/05/16 14:04:11;;;;;;;12.82;3.55;;;;;;;;;;5053809;28;20056;-66
2022/05/16 14:06:46;;;;;;;7.95;3.95;;;;;;;;;;5032769;28;20044;-67
2022/05/16 14:09:55;;;;;;;13.90;4.22;;;;;;;;;;5035083;28;20049;-67
2022/05/16 14:12:31;;;;;;;8.80;3.63;;;;;;;;;;5053159;28;20041;-68
2022/05/16 14:15:02;;;;;;;11.98;3.92;;;;;;;;;;5053210;28;20103;-68
2022/05/16 14:17:40;;;;;;;6.05;3.95;;;;;;;;;;5034579;28;20067;-67
2022/05/16 14:20:16;;;;;;;9.20;4.22;;;;;;;;;;5052654;28;20045;-67
2022/05/16 14:22:50;;;;;;;7.90;4.32;;;;;;;;;;5052824;28;20037;-67
2022/05/16 14:25:40;;;;;;;13.30;4.05;;;;;;;;;;5053230;28;20049;-67
2022/05/16 14:28:45;;;;;;;10.88;3.60;;;;;;;;;;5051839;28;20110;-66
2022/05/16 14:31:20;;;;;;;6.82;3.45;;;;;;;;;;5011043;28;20143;-66
2022/05/16 14:34:02;;;;;;;8.02;3.83;;;;;;;;;;5052554;28;20159;-66
2022/05/16 14:36:35;;;;;;;13.18;3.97;;;;;;;;;;5052338;28;20144;-67
2022/05/16 14:39:16;;;;;;;6.75;3.40;;;;;;;;;;5034846;28;20059;-67
2022/05/16 14:42:08;;;;;;;7.15;3.33;;;;;;;;;;5053000;28;20044;-67
2022/05/16 14:44:39;;;;;;;6.00;3.97;;;;;;;;;;5052448;28;20415;-66
2022/05/16 14:47:25;;;;;;;12.73;4.47;;;;;;;;;;5052873;28;20091;-67
2022/05/16 14:49:55;;;;;;;12.35;4.05;;;;;;;;;;5034784;28;20048;-66
2022/05/16 14:52:26;;;;;;;10.98;4.13;;;;;;;;;;5052260;28;20053;-66
2022/05/16 14:55:30;;;;;;;10.52;4.35;;;;;;;;;;5035614;28;20114;-66
2022/05/16 14:58:00;;;;;;;9.57;4.15;;;;;;;;;;5049666;28;20056;-66
2022/05/16 15:06:07;;;;;;;10.57;4.97;;;;;;;;;;5051675;28;20037;-67
2022/05/16 15:08:38;;;;;;;9.82;4.00;;;;;;;;;;5052543;28;20083;-69
2022/05/16 15:11:06;;;;;;;7.50;4.25;;;;;;;;;;5046090;28;20088;-67
2022/05/16 15:13:34;;;;;;;10.52;4.22;;;;;;;;;;5015407;28;20049;-68
2022/05/16 15:16:04;;;;;;;7.95;4.55;;;;;;;;;;5031305;28;20050;-68
2022/05/16 15:18:33;;;;;;;10.85;4.28;;;;;;;;;;5030806;28;20125;-67
2022/05/16 15:21:01;;;;;;;8.88;5.15;;;;;;;;;;5031161;28;20187;-68
2022/05/16 15:23:31;;;;;;;8.25;4.32;;;;;;;;;;5029681;28;20412;-68
2022/05/16 15:26:00;;;;;;;7.78;4.00;;;;;;;;;;5031188;28;20681;-68
2022/05/16 15:28:28;;;;;;;7.93;3.90;;;;;;;;;;5016336;28;20053;-68
2022/05/16 15:31:02;;;;;;;6.55;3.92;;;;;;;;;;5034859;28;20496;-68
2022/05/16 15:33:32;;;;;;;11.07;4.03;;;;;;;;;;5035550;28;20046;-68
2022/05/16 15:36:03;;;;;;;13.25;3.97;;;;;;;;;;5035768;28;20044;-68
2022/05/16 15:38:31;;;;;;;12.48;4.32;;;;;;;;;;5036444;28;20506;-68
2022/05/16 15:41:02;;;;;;;8.98;4.20;;;;;;;;;;5036289;28;20041;-68
2022/05/16 15:43:34;;;;;;;11.68;4.15;;;;;;;;;;5036627;28;20527;-68
2022/05/16 15:46:07;;;;;;;6.80;4.18;;;;;;;;;;5035820;28;20496;-68
2022/05/16 15:48:38;;;;;;;9.30;3.87;;;;;;;;;;5036488;28;20452;-68
2022/05/16 15:51:06;;;;;;;18.02;5.40;;;;;;;;;;5036110;28;20061;-68
2022/05/16 15:53:41;;;;;;;5.95;4.32;;;;;;;;;;5018694;28;20072;-68
2022/05/16 15:56:11;;;;;;;17.52;5.63;;;;;;;;;;5036233;28;20053;-68
2022/05/16 15:58:40;;;;;;;6.18;4.40;;;;;;;;;;5035891;28;20424;-68
2022/05/16 16:01:11;;;;;;;10.15;4.28;;;;;;;;;;5036585;28;20056;-68
2022/05/16 16:09:16;;;;;;;8.10;5.05;;;;;;;;;;5036311;28;20053;-68